createdAt,value
2018-06-16T00:02:15.280Z,5.17
2018-06-16T00:04:42.179Z,8.23
2018-06-16T00:07:09.120Z,6.90
2018-06-16T00:09:36.026Z,7.20
2018-06-16T00:12:02.973Z,6.30
2018-06-16T00:14:29.888Z,6.53
2018-06-16T00:16:56.856Z,7.70
2018-06-16T00:19:23.781Z,5.23
2018-06-16T00:21:50.701Z,7.03
2018-06-16T00:24:17.736Z,5.67
2018-06-16T00:26:44.676Z,4.90
2018-06-16T00:29:11.592Z,6.97
2018-06-16T00:31:38.484Z,9.17
2018-06-16T00:34:05.395Z,7.47
2018-06-16T00:36:32.345Z,5.07
2018-06-16T00:38:59.252Z,4.63
2018-06-16T00:41:26.136Z,6.43
2018-06-16T00:43:53.033Z,4.50
2018-06-16T00:46:19.960Z,6.43
2018-06-16T00:48:47.170Z,3.60
2018-06-16T00:51:14.073Z,5.13
2018-06-16T00:53:40.966Z,4.03
2018-06-16T00:56:07.852Z,5.33
2018-06-16T00:58:34.737Z,4.63
2018-06-16T01:01:01.629Z,8.23
2018-06-16T01:03:28.534Z,4.57
2018-06-16T01:05:55.401Z,4.43
2018-06-16T01:08:22.568Z,5.50
2018-06-16T01:10:50.112Z,4.47
2018-06-16T01:13:17.017Z,4.97
2018-06-16T01:15:43.888Z,3.47
2018-06-16T01:18:10.788Z,6.00
2018-06-16T01:20:37.664Z,4.43
2018-06-16T01:23:04.563Z,4.67
2018-06-16T01:25:31.451Z,5.70
2018-06-16T01:27:59.296Z,3.97
2018-06-16T01:30:26.176Z,4.57
2018-06-16T01:32:53.056Z,4.43
2018-06-16T01:35:19.949Z,4.87
2018-06-16T01:37:46.857Z,4.50
2018-06-16T01:40:13.744Z,3.33
2018-06-16T01:42:40.640Z,3.20
2018-06-16T01:45:07.605Z,3.93
2018-06-16T01:47:34.486Z,2.90
2018-06-16T01:50:01.397Z,3.80
2018-06-16T01:52:28.273Z,4.50
2018-06-16T01:54:55.169Z,4.23
2018-06-16T01:57:22.045Z,4.40
2018-06-16T01:59:48.935Z,4.87
2018-06-16T02:02:15.825Z,4.83
2018-06-16T02:04:42.715Z,3.53
2018-06-16T02:07:09.601Z,6.13
2018-06-16T02:09:36.500Z,6.27
2018-06-16T02:12:03.601Z,6.17
2018-06-16T02:14:30.500Z,3.73
2018-06-16T02:16:57.381Z,7.10
2018-06-16T02:19:24.289Z,4.07
2018-06-16T02:21:51.197Z,4.07
2018-06-16T02:24:18.130Z,5.23
2018-06-16T02:26:45.042Z,4.60
2018-06-16T02:29:11.946Z,4.50
2018-06-16T02:31:38.853Z,4.60
2018-06-16T02:34:05.745Z,3.53
2018-06-16T02:36:32.644Z,3.43
2018-06-16T02:38:59.552Z,3.07
2018-06-16T02:41:26.469Z,3.83
2018-06-16T02:43:53.353Z,5.57
2018-06-16T02:46:20.264Z,3.93
2018-06-16T02:48:47.152Z,4.13
2018-06-16T02:51:14.082Z,4.20
2018-06-16T02:53:40.977Z,7.50
2018-06-16T02:56:07.898Z,7.70
2018-06-16T02:58:34.855Z,4.07
2018-06-16T03:01:01.765Z,6.80
2018-06-16T03:03:28.723Z,5.60
2018-06-16T03:05:55.653Z,4.53
2018-06-16T03:08:22.562Z,4.57
2018-06-16T03:10:49.478Z,5.97
2018-06-16T03:13:16.369Z,4.67
2018-06-16T03:15:43.259Z,5.37
2018-06-16T03:18:10.416Z,7.90
2018-06-16T03:20:37.300Z,5.87
2018-06-16T03:23:04.257Z,5.10
2018-06-16T03:25:31.188Z,3.47
2018-06-16T03:27:58.093Z,3.97
2018-06-16T03:30:25.002Z,4.20
2018-06-16T03:32:51.937Z,5.53
2018-06-16T03:35:18.840Z,4.23
2018-06-16T03:37:45.776Z,3.63
2018-06-16T03:40:12.686Z,6.00
2018-06-16T03:42:39.653Z,4.70
2018-06-16T03:45:06.609Z,6.47
2018-06-16T03:47:33.538Z,7.57
2018-06-16T03:50:00.453Z,5.67
2018-06-16T03:52:27.393Z,4.70
2018-06-16T03:54:54.297Z,6.43
2018-06-16T03:57:21.201Z,4.17
2018-06-16T03:59:48.081Z,3.97
2018-06-16T04:02:14.984Z,5.47
2018-06-16T04:04:41.879Z,5.10
2018-06-16T04:07:08.775Z,5.33
2018-06-16T04:09:35.674Z,5.07
2018-06-16T04:12:02.577Z,6.03
2018-06-16T04:14:29.461Z,5.60
2018-06-16T04:16:56.386Z,4.40
2018-06-16T04:19:23.277Z,6.07
2018-06-16T04:21:50.178Z,7.73
2018-06-16T04:24:17.078Z,4.27
2018-06-16T04:26:44.000Z,6.07
2018-06-16T04:29:10.921Z,6.23
2018-06-16T04:31:37.837Z,6.90
2018-06-16T04:34:04.769Z,8.03
2018-06-16T04:36:31.722Z,5.07
2018-06-16T04:38:58.622Z,4.77
2018-06-16T04:41:25.553Z,5.47
2018-06-16T04:43:52.490Z,4.70
2018-06-16T04:46:19.394Z,7.27
2018-06-16T04:48:46.347Z,5.83
2018-06-16T04:51:13.258Z,5.47
2018-06-16T04:53:40.174Z,8.27
2018-06-16T04:56:07.095Z,7.57
2018-06-16T04:58:34.015Z,4.37
2018-06-16T05:01:00.929Z,6.17
2018-06-16T05:03:27.861Z,6.20
2018-06-16T05:05:54.788Z,4.70
2018-06-16T05:08:21.709Z,9.20
2018-06-16T05:10:48.625Z,5.20
2018-06-16T05:13:15.561Z,5.63
2018-06-16T05:15:42.490Z,7.33
2018-06-16T05:18:09.449Z,7.10
2018-06-16T05:20:36.361Z,5.33
2018-06-16T05:23:03.303Z,6.43
2018-06-16T05:25:30.223Z,6.47
2018-06-16T05:27:57.149Z,8.00
2018-06-16T05:30:24.064Z,6.57
2018-06-16T05:32:50.997Z,6.03
2018-06-16T05:35:17.921Z,8.07
2018-06-16T05:37:44.834Z,8.10
2018-06-16T05:40:11.783Z,7.07
2018-06-16T05:42:38.706Z,6.40
2018-06-16T05:45:05.642Z,5.07
2018-06-16T05:47:32.561Z,7.40
2018-06-16T05:49:59.481Z,6.27
2018-06-16T05:52:26.481Z,9.43
2018-06-16T05:54:53.621Z,7.40
2018-06-16T05:57:20.623Z,6.70
2018-06-16T05:59:47.557Z,9.07
2018-06-16T06:02:14.478Z,8.13
2018-06-16T06:04:41.405Z,9.07
2018-06-16T06:07:08.493Z,6.37
2018-06-16T06:09:35.427Z,8.20
2018-06-16T06:12:02.369Z,9.53
2018-06-16T06:14:29.298Z,8.93
2018-06-16T06:16:56.230Z,8.80
2018-06-16T06:19:23.149Z,9.27
2018-06-16T06:21:50.081Z,4.83
2018-06-16T06:24:17.009Z,6.43
2018-06-16T06:26:43.933Z,8.20
2018-06-16T06:29:10.857Z,8.93
2018-06-16T06:31:37.793Z,9.20
2018-06-16T06:34:04.739Z,9.53
2018-06-16T06:36:31.652Z,7.50
2018-06-16T06:38:58.573Z,10.40
2018-06-16T06:41:25.493Z,8.57
2018-06-16T06:43:52.419Z,8.63
2018-06-16T06:46:19.358Z,8.07
2018-06-16T06:48:46.306Z,8.30
2018-06-16T06:51:13.227Z,9.13
2018-06-16T06:53:40.188Z,8.30
2018-06-16T06:56:07.107Z,7.87
2018-06-16T06:58:34.033Z,7.73
2018-06-16T07:01:00.944Z,9.27
2018-06-16T07:03:27.872Z,8.10
2018-06-16T07:05:54.801Z,7.53
2018-06-16T07:08:22.181Z,8.17
2018-06-16T07:10:49.161Z,9.57
2018-06-16T07:13:16.043Z,8.70
2018-06-16T07:15:42.982Z,6.73
2018-06-16T07:18:09.906Z,8.63
2018-06-16T07:20:36.936Z,8.40
2018-06-16T07:23:03.854Z,9.20
2018-06-16T07:25:30.795Z,8.03
2018-06-16T07:27:57.705Z,8.50
2018-06-16T07:30:24.628Z,9.40
2018-06-16T07:32:51.545Z,6.83
2018-06-16T07:35:18.459Z,8.00
2018-06-16T07:37:45.365Z,8.80
2018-06-16T07:40:12.318Z,7.73
2018-06-16T07:42:39.247Z,7.33
2018-06-16T07:45:06.189Z,8.47
2018-06-16T07:47:33.117Z,7.77
2018-06-16T07:50:00.054Z,7.03
2018-06-16T07:52:26.970Z,6.37
2018-06-16T07:54:53.943Z,8.50
2018-06-16T07:57:20.859Z,10.97
2018-06-16T07:59:47.789Z,9.03
2018-06-16T08:02:14.706Z,7.97
2018-06-16T08:04:41.632Z,9.67
2018-06-16T08:07:08.558Z,6.13
2018-06-16T08:09:35.494Z,9.47
2018-06-16T08:12:02.406Z,6.40
2018-06-16T08:14:29.460Z,6.57
2018-06-16T08:16:56.369Z,10.60
2018-06-16T08:19:23.274Z,9.43
2018-06-16T08:21:50.269Z,7.90
2018-06-16T08:24:19.322Z,8.63
2018-06-16T08:26:46.436Z,8.43
2018-06-16T08:29:13.349Z,6.17
2018-06-16T08:31:40.264Z,6.73
2018-06-16T08:34:07.268Z,7.10
2018-06-16T08:36:34.174Z,8.40
2018-06-16T08:39:01.054Z,10.13
2018-06-16T08:41:27.956Z,6.80
2018-06-16T08:43:54.847Z,9.03
2018-06-16T08:46:21.725Z,8.60
2018-06-16T08:48:48.633Z,5.70
2018-06-16T08:51:15.521Z,8.57
2018-06-16T08:53:42.401Z,9.53
2018-06-16T08:56:09.289Z,6.67
2018-06-16T08:58:36.217Z,7.00
2018-06-16T09:01:03.197Z,7.23
2018-06-16T09:03:30.102Z,6.80
2018-06-16T09:05:56.997Z,6.67
2018-06-16T09:08:23.890Z,8.33
2018-06-16T09:10:50.797Z,7.30
2018-06-16T09:13:17.669Z,5.37
2018-06-16T09:15:44.557Z,6.50
2018-06-16T09:18:11.426Z,5.33
2018-06-16T09:20:38.326Z,7.47
2018-06-16T09:23:05.210Z,7.50
2018-06-16T09:25:32.649Z,6.13
2018-06-16T09:27:59.547Z,7.80
2018-06-16T09:30:26.419Z,5.07
2018-06-16T09:32:53.424Z,7.63
2018-06-16T09:35:20.340Z,6.60
2018-06-16T09:37:47.237Z,5.43
2018-06-16T09:40:14.126Z,5.10
2018-06-16T09:42:41.197Z,6.27
2018-06-16T09:45:08.110Z,5.07
2018-06-16T09:47:35.030Z,8.90
2018-06-16T09:50:01.954Z,6.40
2018-06-16T09:52:28.844Z,6.70
2018-06-16T09:54:56.008Z,6.57
2018-06-16T09:57:22.893Z,5.50
2018-06-16T09:59:50.173Z,4.43
2018-06-16T10:02:17.063Z,4.47
2018-06-16T10:04:43.946Z,3.97
2018-06-16T10:07:12.593Z,6.93
2018-06-16T10:09:39.489Z,6.40
2018-06-16T10:12:07.222Z,5.93
2018-06-16T10:14:34.105Z,6.23
2018-06-16T10:17:00.996Z,6.00
2018-06-16T10:19:29.348Z,5.67
2018-06-16T10:21:56.248Z,6.63
2018-06-16T10:24:23.117Z,4.23
2018-06-16T10:26:50.026Z,4.77
2018-06-16T10:29:19.105Z,4.10
2018-06-16T10:31:46.019Z,4.07
2018-06-16T10:34:12.926Z,5.53
2018-06-16T10:36:41.910Z,5.60
2018-06-16T10:39:09.137Z,3.77
2018-06-16T10:41:36.042Z,4.07
2018-06-16T10:44:03.066Z,5.00
2018-06-16T10:46:30.890Z,4.57
2018-06-16T10:48:57.779Z,5.00
2018-06-16T10:51:24.681Z,4.07
2018-06-16T10:53:53.718Z,6.33
2018-06-16T10:56:20.637Z,5.00
2018-06-16T10:58:47.527Z,5.03
2018-06-16T11:01:15.438Z,5.20
2018-06-16T11:03:42.357Z,5.73
2018-06-16T11:06:09.241Z,6.47
2018-06-16T11:08:36.144Z,3.90
2018-06-16T11:11:03.061Z,6.73
2018-06-16T11:13:30.261Z,6.83
2018-06-16T11:15:57.157Z,6.43
2018-06-16T11:18:24.666Z,4.77
2018-06-16T11:20:51.553Z,4.60
2018-06-16T11:23:18.473Z,5.20
2018-06-16T11:25:45.381Z,6.27
2018-06-16T11:28:12.281Z,5.17
2018-06-16T11:30:39.177Z,6.43
2018-06-16T11:33:06.083Z,6.63
2018-06-16T11:35:32.957Z,8.23
2018-06-16T11:37:59.848Z,7.33
2018-06-16T11:40:26.754Z,7.93
2018-06-16T11:42:53.743Z,6.00
2018-06-16T11:45:20.635Z,6.37
2018-06-16T11:47:47.526Z,5.50
2018-06-16T11:50:14.410Z,5.20
2018-06-16T11:52:41.300Z,6.30
2018-06-16T11:55:08.177Z,5.17
2018-06-16T11:57:35.122Z,6.13
2018-06-16T12:00:01.982Z,5.77
2018-06-16T12:02:28.905Z,4.60
2018-06-16T12:04:55.890Z,4.83
2018-06-16T12:07:22.779Z,5.60
2018-06-16T12:09:49.644Z,5.70
2018-06-16T12:12:16.546Z,4.60
2018-06-16T12:14:43.432Z,5.40
2018-06-16T12:17:10.322Z,5.03
2018-06-16T12:19:37.213Z,7.17
2018-06-16T12:22:04.088Z,6.70
2018-06-16T12:24:30.994Z,5.53
2018-06-16T12:26:57.922Z,5.70
2018-06-16T12:29:24.806Z,5.27
2018-06-16T12:31:51.693Z,5.17
2018-06-16T12:34:18.594Z,5.93
2018-06-16T12:36:45.474Z,6.67
2018-06-16T12:39:12.365Z,5.97
2018-06-16T12:41:39.366Z,6.70
2018-06-16T12:44:06.514Z,5.97
2018-06-16T12:46:33.399Z,6.03
2018-06-16T12:49:00.281Z,7.27
2018-06-16T12:51:27.173Z,9.40
2018-06-16T12:53:54.058Z,6.47
2018-06-16T12:56:20.927Z,8.00
2018-06-16T12:58:47.904Z,7.30
2018-06-16T13:01:14.786Z,4.77
2018-06-16T13:03:41.666Z,7.97
2018-06-16T13:06:08.546Z,8.47
2018-06-16T13:08:35.427Z,7.07
2018-06-16T13:11:02.308Z,6.07
2018-06-16T13:13:29.273Z,7.17
2018-06-16T13:15:56.183Z,7.27
2018-06-16T13:18:23.071Z,5.97
2018-06-16T13:20:49.950Z,4.13
2018-06-16T13:23:16.845Z,4.67
2018-06-16T13:25:43.802Z,4.07
2018-06-16T13:28:10.733Z,4.03
2018-06-16T13:30:37.644Z,4.67
2018-06-16T13:33:04.581Z,5.97
2018-06-16T13:35:31.478Z,3.60
2018-06-16T13:37:58.396Z,5.13
2018-06-16T13:40:25.316Z,4.33
2018-06-16T13:42:52.233Z,7.77
2018-06-16T13:45:19.153Z,3.47
2018-06-16T13:47:46.054Z,4.23
2018-06-16T13:50:12.966Z,6.40
2018-06-16T13:52:39.883Z,4.23
2018-06-16T13:55:06.818Z,4.50
2018-06-16T13:57:33.739Z,3.57
2018-06-16T14:00:00.638Z,4.27
2018-06-16T14:02:27.525Z,5.93
2018-06-16T14:04:54.434Z,6.23
2018-06-16T14:07:21.413Z,4.07
2018-06-16T14:09:48.293Z,4.77
2018-06-16T14:12:15.215Z,4.40
2018-06-16T14:14:42.124Z,5.53
2018-06-16T14:17:09.021Z,4.70
2018-06-16T14:19:35.933Z,4.77
2018-06-16T14:22:02.870Z,4.27
2018-06-16T14:24:29.821Z,6.03
2018-06-16T14:26:56.726Z,7.07
2018-06-16T14:29:23.646Z,6.70
2018-06-16T14:31:50.570Z,6.73
2018-06-16T14:34:20.627Z,5.33
2018-06-16T14:36:50.157Z,7.30
2018-06-16T14:39:19.442Z,5.40
2018-06-16T14:41:46.326Z,6.60
2018-06-16T14:44:13.289Z,7.93
2018-06-16T14:46:40.205Z,4.90
2018-06-16T14:49:07.097Z,8.37
2018-06-16T14:51:33.985Z,4.80
2018-06-16T14:54:01.150Z,6.53
2018-06-16T14:56:28.087Z,5.00
2018-06-16T14:58:54.994Z,6.00
2018-06-16T15:01:21.886Z,5.57
2018-06-16T15:03:48.813Z,5.70
2018-06-16T15:06:15.726Z,5.47
2018-06-16T15:08:42.625Z,6.13
2018-06-16T15:11:09.539Z,9.07
2018-06-16T15:13:36.574Z,6.20
2018-06-16T15:16:03.516Z,6.30
2018-06-16T15:18:30.426Z,6.03
2018-06-16T15:20:57.355Z,4.90
2018-06-16T15:23:24.277Z,8.17
2018-06-16T15:25:51.217Z,16.67
2018-06-16T15:28:18.158Z,19.37
2018-06-16T15:30:45.089Z,19.10
2018-06-16T15:33:12.017Z,19.57
2018-06-16T15:35:38.945Z,19.80
2018-06-16T15:38:05.878Z,16.67
2018-06-16T15:40:32.814Z,15.93
2018-06-16T15:42:59.733Z,15.87
2018-06-16T15:45:26.653Z,14.10
2018-06-16T15:47:53.553Z,13.80
2018-06-16T15:50:20.461Z,16.13
2018-06-16T15:52:47.396Z,15.33
2018-06-16T15:55:14.310Z,14.43
2018-06-16T15:57:41.209Z,13.87
2018-06-16T16:00:08.130Z,14.53
2018-06-16T16:02:35.045Z,13.03
2018-06-16T16:05:01.969Z,13.33
2018-06-16T16:07:28.878Z,13.33
2018-06-16T16:09:56.094Z,12.60
2018-06-16T16:12:22.993Z,14.00
2018-06-16T16:14:49.889Z,13.20
2018-06-16T16:17:17.775Z,13.90
2018-06-16T16:19:44.686Z,13.27
2018-06-16T16:22:11.745Z,13.13
2018-06-16T16:24:38.645Z,15.23
2018-06-16T16:27:05.585Z,14.87
2018-06-16T16:29:32.478Z,17.33
2018-06-16T16:31:59.423Z,13.33
2018-06-16T16:34:26.321Z,15.03
2018-06-16T16:36:53.223Z,13.60
2018-06-16T16:39:20.126Z,15.93
2018-06-16T16:41:47.030Z,13.30
2018-06-16T16:44:13.917Z,12.27
2018-06-16T16:46:40.817Z,16.03
2018-06-16T16:49:07.937Z,13.57
2018-06-16T16:51:34.935Z,13.50
2018-06-16T16:54:02.067Z,14.83
2018-06-16T16:56:28.989Z,14.23
2018-06-16T16:58:55.898Z,13.77
2018-06-16T17:01:22.810Z,11.80
2018-06-16T17:03:49.721Z,10.67
2018-06-16T17:06:16.633Z,9.67
2018-06-16T17:08:43.518Z,9.83
2018-06-16T17:11:10.417Z,11.00
2018-06-16T17:13:37.309Z,14.07
2018-06-16T17:16:04.277Z,13.47
2018-06-16T17:18:31.176Z,13.00
2018-06-16T17:20:58.082Z,15.03
2018-06-16T17:23:24.986Z,16.70
2018-06-16T17:25:51.940Z,21.50
2018-06-16T17:28:18.845Z,21.90
2018-06-16T17:30:45.750Z,24.63
2018-06-16T17:33:12.654Z,25.87
2018-06-16T17:35:39.590Z,26.00
2018-06-16T17:38:06.777Z,28.30
2018-06-16T17:40:33.689Z,28.03
2018-06-16T17:43:00.613Z,29.00
2018-06-16T17:45:27.531Z,28.80
2018-06-16T17:48:01.338Z,29.97
2018-06-16T17:50:28.237Z,28.47
2018-06-16T17:52:55.194Z,28.80
2018-06-16T17:55:22.121Z,27.77
2018-06-16T17:57:49.035Z,27.13
2018-06-16T18:00:15.953Z,28.23
2018-06-16T18:02:42.866Z,28.40
2018-06-16T18:05:09.782Z,25.43
2018-06-16T18:07:36.725Z,26.90
2018-06-16T18:10:04.312Z,26.10
2018-06-16T18:12:31.222Z,27.33
2018-06-16T18:14:58.125Z,27.17
2018-06-16T18:17:26.808Z,25.40
2018-06-16T18:19:53.737Z,23.93
2018-06-16T18:22:20.645Z,23.53
2018-06-16T18:24:47.570Z,22.20
2018-06-16T18:27:14.500Z,23.10
2018-06-16T18:29:45.719Z,22.97
2018-06-16T18:32:12.657Z,22.87
2018-06-16T18:34:39.553Z,23.47
2018-06-16T18:37:06.469Z,24.47
2018-06-16T18:39:33.382Z,22.57
2018-06-16T18:42:00.309Z,23.97
2018-06-16T18:44:27.223Z,21.77
2018-06-16T18:46:54.144Z,20.97
2018-06-16T18:49:21.037Z,21.13
2018-06-16T18:51:47.953Z,20.03
2018-06-16T18:54:14.875Z,21.40
2018-06-16T18:56:41.819Z,21.50
2018-06-16T18:59:08.723Z,21.67
2018-06-16T19:01:35.657Z,23.63
2018-06-16T19:04:02.589Z,21.73
2018-06-16T19:06:29.497Z,21.10
2018-06-16T19:08:56.421Z,22.60
2018-06-16T19:11:23.334Z,22.23
2018-06-16T19:13:50.245Z,21.57
2018-06-16T19:16:17.159Z,21.30
2018-06-16T19:18:44.085Z,21.87
2018-06-16T19:21:10.981Z,22.27
2018-06-16T19:23:39.190Z,20.50
2018-06-16T19:26:06.425Z,21.20
2018-06-16T19:28:33.393Z,21.27
2018-06-16T19:31:00.253Z,20.10
2018-06-16T19:33:27.173Z,21.53
2018-06-16T19:36:00.897Z,20.57
2018-06-16T19:38:27.955Z,20.57
2018-06-16T19:40:54.873Z,20.77
2018-06-16T19:43:21.891Z,21.53
2018-06-16T19:45:49.074Z,20.60
2018-06-16T19:48:15.981Z,21.20
2018-06-16T19:50:42.878Z,21.30
2018-06-16T19:53:09.797Z,22.40
2018-06-16T19:55:36.704Z,21.27
2018-06-16T19:58:03.654Z,21.77
2018-06-16T20:00:30.577Z,20.90
2018-06-16T20:02:57.493Z,20.93
2018-06-16T20:05:24.405Z,21.83
2018-06-16T20:07:51.326Z,22.20
2018-06-16T20:10:18.229Z,22.20
2018-06-16T20:12:45.201Z,21.87
2018-06-16T20:15:12.093Z,21.03
2018-06-16T20:17:39.014Z,22.17
2018-06-16T20:20:06.644Z,22.87
2018-06-16T20:22:33.596Z,22.47
2018-06-16T20:25:00.503Z,22.03
2018-06-16T20:27:31.462Z,21.40
2018-06-16T20:29:58.490Z,22.93
2018-06-16T20:32:25.393Z,22.93
2018-06-16T20:34:52.333Z,22.90
2018-06-16T20:37:19.297Z,20.37
2018-06-16T20:39:46.169Z,21.80
2018-06-16T20:42:13.046Z,22.87
2018-06-16T20:44:39.957Z,23.00
2018-06-16T20:47:06.839Z,23.93
2018-06-16T20:49:33.737Z,22.87
2018-06-16T20:52:00.629Z,23.33
2018-06-16T20:54:27.524Z,23.73
2018-06-16T20:56:54.438Z,24.07
2018-06-16T20:59:21.350Z,23.87
2018-06-16T21:01:48.265Z,29.17
2018-06-16T21:04:16.227Z,26.07
2018-06-16T21:06:43.137Z,28.53
2018-06-16T21:09:11.252Z,28.50
2018-06-16T21:11:38.141Z,29.27
2018-06-16T21:14:05.055Z,29.70
2018-06-16T21:16:31.975Z,31.03
2018-06-16T21:18:58.885Z,27.83
2018-06-16T21:21:25.820Z,29.73
2018-06-16T21:23:52.685Z,32.40
2018-06-16T21:26:19.599Z,29.83
2018-06-16T21:28:46.585Z,31.10
2018-06-16T21:31:13.487Z,30.23
2018-06-16T21:33:40.417Z,28.97
2018-06-16T21:36:07.322Z,30.13
2018-06-16T21:38:34.226Z,34.63
2018-06-16T21:41:01.124Z,31.77
2018-06-16T21:43:28.062Z,30.33
2018-06-16T21:45:54.965Z,30.47
2018-06-16T21:48:21.886Z,31.03
2018-06-16T21:50:48.855Z,30.77
2018-06-16T21:53:15.757Z,30.30
2018-06-16T21:55:42.674Z,29.67
2018-06-16T21:58:09.580Z,29.43
2018-06-16T22:00:36.514Z,30.53
2018-06-16T22:03:04.881Z,30.73
2018-06-16T22:05:31.866Z,33.33
2018-06-16T22:08:04.565Z,32.07
2018-06-16T22:10:31.543Z,32.03
2018-06-16T22:12:58.389Z,30.97
2018-06-16T22:15:25.335Z,31.33
2018-06-16T22:17:52.238Z,31.33
2018-06-16T22:20:19.146Z,31.60
2018-06-16T22:22:46.061Z,31.27
2018-06-16T22:25:13.377Z,31.37
2018-06-16T22:27:40.744Z,31.53
2018-06-16T22:30:07.682Z,31.00
2018-06-16T22:32:35.190Z,30.77
2018-06-16T22:35:02.118Z,31.93
2018-06-16T22:37:29.021Z,30.13
2018-06-16T22:39:55.936Z,29.97
2018-06-16T22:42:22.857Z,29.83
2018-06-16T22:44:49.757Z,30.23
2018-06-16T22:47:16.644Z,30.63
2018-06-16T22:49:43.713Z,31.47
2018-06-16T22:52:10.677Z,30.93
2018-06-16T22:54:37.625Z,29.77
2018-06-16T22:57:04.525Z,30.17
2018-06-16T22:59:31.429Z,29.50
2018-06-16T23:01:58.323Z,29.63
2018-06-16T23:04:25.209Z,29.93
2018-06-16T23:06:52.114Z,30.20
2018-06-16T23:09:19.009Z,31.03
2018-06-16T23:11:45.902Z,33.73
2018-06-16T23:14:12.806Z,35.53
2018-06-16T23:16:39.803Z,35.50
2018-06-16T23:19:06.689Z,29.87
2018-06-16T23:21:33.629Z,30.67
2018-06-16T23:24:06.558Z,31.17
2018-06-16T23:26:33.492Z,32.20
2018-06-16T23:29:00.425Z,32.80
2018-06-16T23:31:27.342Z,36.73
2018-06-16T23:33:54.276Z,37.23
2018-06-16T23:36:21.221Z,35.57
2018-06-16T23:38:48.116Z,36.93
2018-06-16T23:41:15.034Z,35.33
2018-06-16T23:43:41.933Z,36.13
2018-06-16T23:46:08.847Z,41.90
2018-06-16T23:48:35.753Z,39.13
2018-06-16T23:51:02.665Z,40.73
2018-06-16T23:53:29.573Z,38.50
2018-06-16T23:55:56.511Z,34.53
2018-06-16T23:58:23.416Z,33.97
